sensor_id;sensor_type;location;lat;lon;timestamp;P1;durP1;ratioP1;P2;durP2;ratioP2
10144;SDS011;5113;41.822;23.564;2023-06-10T00:02:43;4.37;;;3.97;;
10144;SDS011;5113;41.822;23.564;2023-06-10T00:05:49;4.13;;;3.83;;
10144;SDS011;5113;41.822;23.564;2023-06-10T00:08:57;3.90;;;3.60;;
10144;SDS011;5113;41.822;23.564;2023-06-10T00:12:05;7.13;;;3.93;;
10144;SDS011;5113;41.822;23.564;2023-06-10T00:15:14;4.07;;;3.70;;
10144;SDS011;5113;41.822;23.564;2023-06-10T00:18:20;3.63;;;3.40;;
10144;SDS011;5113;41.822;23.564;2023-06-10T00:21:27;4.47;;;4.07;;
10144;SDS011;5113;41.822;23.564;2023-06-10T00:24:35;4.00;;;3.53;;
10144;SDS011;5113;41.822;23.564;2023-06-10T00:27:42;3.97;;;3.67;;
10144;SDS011;5113;41.822;23.564;2023-06-10T00:30:49;4.50;;;3.70;;
10144;SDS011;5113;41.822;23.564;2023-06-10T00:33:55;3.93;;;3.63;;
10144;SDS011;5113;41.822;23.564;2023-06-10T00:37:04;4.63;;;4.23;;
10144;SDS011;5113;41.822;23.564;2023-06-10T00:40:12;4.23;;;3.80;;
10144;SDS011;5113;41.822;23.564;2023-06-10T00:43:18;5.57;;;4.60;;
10144;SDS011;5113;41.822;23.564;2023-06-10T00:46:25;4.63;;;3.83;;
10144;SDS011;5113;41.822;23.564;2023-06-10T00:49:32;4.53;;;4.03;;
10144;SDS011;5113;41.822;23.564;2023-06-10T00:52:40;4.27;;;3.93;;
10144;SDS011;5113;41.822;23.564;2023-06-10T00:55:52;5.20;;;3.80;;
10144;SDS011;5113;41.822;23.564;2023-06-10T00:58:58;5.30;;;4.80;;
10144;SDS011;5113;41.822;23.564;2023-06-10T01:02:05;5.00;;;4.27;;
10144;SDS011;5113;41.822;23.564;2023-06-10T01:05:12;4.20;;;3.80;;
10144;SDS011;5113;41.822;23.564;2023-06-10T01:08:19;3.97;;;3.47;;
10144;SDS011;5113;41.822;23.564;2023-06-10T01:11:38;4.00;;;3.73;;
10144;SDS011;5113;41.822;23.564;2023-06-10T01:14:51;4.33;;;3.97;;
10144;SDS011;5113;41.822;23.564;2023-06-10T01:17:58;4.17;;;3.73;;
10144;SDS011;5113;41.822;23.564;2023-06-10T01:21:07;5.13;;;4.03;;
10144;SDS011;5113;41.822;23.564;2023-06-10T01:24:15;3.93;;;3.63;;
10144;SDS011;5113;41.822;23.564;2023-06-10T01:27:23;3.93;;;3.63;;
10144;SDS011;5113;41.822;23.564;2023-06-10T01:30:36;4.73;;;4.10;;
10144;SDS011;5113;41.822;23.564;2023-06-10T01:33:49;4.87;;;4.33;;
10144;SDS011;5113;41.822;23.564;2023-06-10T01:36:58;4.07;;;3.67;;
10144;SDS011;5113;41.822;23.564;2023-06-10T01:40:08;3.90;;;3.60;;
10144;SDS011;5113;41.822;23.564;2023-06-10T01:43:15;4.17;;;3.93;;
10144;SDS011;5113;41.822;23.564;2023-06-10T01:46:21;4.97;;;4.57;;
10144;SDS011;5113;41.822;23.564;2023-06-10T01:49:28;4.30;;;3.90;;
10144;SDS011;5113;41.822;23.564;2023-06-10T01:52:34;4.70;;;4.27;;
10144;SDS011;5113;41.822;23.564;2023-06-10T01:55:43;4.40;;;4.00;;
10144;SDS011;5113;41.822;23.564;2023-06-10T01:58:50;4.40;;;4.00;;
10144;SDS011;5113;41.822;23.564;2023-06-10T02:01:59;4.60;;;4.20;;
10144;SDS011;5113;41.822;23.564;2023-06-10T02:05:06;3.77;;;3.47;;
10144;SDS011;5113;41.822;23.564;2023-06-10T02:08:13;5.83;;;4.30;;
10144;SDS011;5113;41.822;23.564;2023-06-10T02:11:21;4.03;;;3.73;;
10144;SDS011;5113;41.822;23.564;2023-06-10T02:14:27;4.30;;;4.00;;
10144;SDS011;5113;41.822;23.564;2023-06-10T02:17:34;4.67;;;4.23;;
10144;SDS011;5113;41.822;23.564;2023-06-10T02:20:40;4.40;;;4.07;;
10144;SDS011;5113;41.822;23.564;2023-06-10T02:23:47;4.73;;;4.27;;
10144;SDS011;5113;41.822;23.564;2023-06-10T02:26:54;4.67;;;4.23;;
10144;SDS011;5113;41.822;23.564;2023-06-10T02:30:01;5.23;;;4.53;;
10144;SDS011;5113;41.822;23.564;2023-06-10T02:33:08;7.47;;;4.43;;
10144;SDS011;5113;41.822;23.564;2023-06-10T02:36:15;4.00;;;3.70;;
10144;SDS011;5113;41.822;23.564;2023-06-10T02:39:21;4.27;;;3.87;;
10144;SDS011;5113;41.822;23.564;2023-06-10T02:42:29;4.30;;;4.00;;
10144;SDS011;5113;41.822;23.564;2023-06-10T02:45:36;5.67;;;4.37;;
10144;SDS011;5113;41.822;23.564;2023-06-10T02:48:42;4.93;;;4.40;;
10144;SDS011;5113;41.822;23.564;2023-06-10T03:05:59;4.10;;;3.80;;
10144;SDS011;5113;41.822;23.564;2023-06-10T03:09:06;7.67;;;5.83;;
10144;SDS011;5113;41.822;23.564;2023-06-10T03:12:12;5.40;;;4.57;;
10144;SDS011;5113;41.822;23.564;2023-06-10T03:15:18;5.13;;;4.63;;
10144;SDS011;5113;41.822;23.564;2023-06-10T03:18:26;4.67;;;4.27;;
10144;SDS011;5113;41.822;23.564;2023-06-10T03:21:35;6.97;;;6.37;;
10144;SDS011;5113;41.822;23.564;2023-06-10T03:24:41;8.23;;;6.47;;
10144;SDS011;5113;41.822;23.564;2023-06-10T03:27:48;6.77;;;6.07;;
10144;SDS011;5113;41.822;23.564;2023-06-10T03:30:54;4.67;;;4.17;;
10144;SDS011;5113;41.822;23.564;2023-06-10T03:34:00;6.57;;;4.80;;
10144;SDS011;5113;41.822;23.564;2023-06-10T03:37:08;4.83;;;4.43;;
10144;SDS011;5113;41.822;23.564;2023-06-10T03:40:14;3.77;;;3.47;;
10144;SDS011;5113;41.822;23.564;2023-06-10T03:43:20;4.60;;;3.97;;
10144;SDS011;5113;41.822;23.564;2023-06-10T03:46:26;4.37;;;3.97;;
10144;SDS011;5113;41.822;23.564;2023-06-10T03:49:33;5.37;;;4.37;;
10144;SDS011;5113;41.822;23.564;2023-06-10T03:52:42;4.30;;;3.90;;
10144;SDS011;5113;41.822;23.564;2023-06-10T03:55:50;4.57;;;4.17;;
10144;SDS011;5113;41.822;23.564;2023-06-10T03:58:56;5.40;;;4.90;;
10144;SDS011;5113;41.822;23.564;2023-06-10T04:02:02;5.47;;;4.73;;
10144;SDS011;5113;41.822;23.564;2023-06-10T04:05:09;5.70;;;5.20;;
10144;SDS011;5113;41.822;23.564;2023-06-10T04:08:17;10.00;;;5.77;;
10144;SDS011;5113;41.822;23.564;2023-06-10T04:11:23;5.13;;;4.63;;
10144;SDS011;5113;41.822;23.564;2023-06-10T04:14:29;4.30;;;3.90;;
10144;SDS011;5113;41.822;23.564;2023-06-10T04:17:35;4.57;;;4.17;;
10144;SDS011;5113;41.822;23.564;2023-06-10T04:20:42;5.17;;;3.73;;
10144;SDS011;5113;41.822;23.564;2023-06-10T04:23:50;4.37;;;3.97;;
10144;SDS011;5113;41.822;23.564;2023-06-10T04:26:56;5.80;;;4.53;;
10144;SDS011;5113;41.822;23.564;2023-06-10T04:30:03;4.47;;;4.00;;
10144;SDS011;5113;41.822;23.564;2023-06-10T04:33:10;5.20;;;4.53;;
10144;SDS011;5113;41.822;23.564;2023-06-10T04:36:16;4.50;;;3.93;;
10144;SDS011;5113;41.822;23.564;2023-06-10T04:39:23;6.13;;;5.23;;
10144;SDS011;5113;41.822;23.564;2023-06-10T04:42:30;4.20;;;3.83;;
10144;SDS011;5113;41.822;23.564;2023-06-10T04:45:37;4.87;;;4.27;;
10144;SDS011;5113;41.822;23.564;2023-06-10T04:48:43;4.17;;;3.77;;
10144;SDS011;5113;41.822;23.564;2023-06-10T04:51:52;4.13;;;3.73;;
10144;SDS011;5113;41.822;23.564;2023-06-10T04:54:59;5.10;;;4.40;;
10144;SDS011;5113;41.822;23.564;2023-06-10T04:58:06;4.77;;;4.23;;
10144;SDS011;5113;41.822;23.564;2023-06-10T05:01:12;5.10;;;4.60;;
10144;SDS011;5113;41.822;23.564;2023-06-10T05:04:19;6.57;;;4.50;;
10144;SDS011;5113;41.822;23.564;2023-06-10T05:07:25;4.43;;;4.03;;
10144;SDS011;5113;41.822;23.564;2023-06-10T05:10:33;4.63;;;4.23;;
10144;SDS011;5113;41.822;23.564;2023-06-10T05:13:41;4.50;;;4.10;;
10144;SDS011;5113;41.822;23.564;2023-06-10T05:16:48;4.73;;;4.33;;
10144;SDS011;5113;41.822;23.564;2023-06-10T05:19:55;4.60;;;4.30;;
10144;SDS011;5113;41.822;23.564;2023-06-10T05:23:02;5.37;;;4.77;;
10144;SDS011;5113;41.822;23.564;2023-06-10T05:26:09;5.37;;;4.87;;
10144;SDS011;5113;41.822;23.564;2023-06-10T05:29:16;5.30;;;4.63;;
10144;SDS011;5113;41.822;23.564;2023-06-10T05:32:22;5.50;;;5.00;;
10144;SDS011;5113;41.822;23.564;2023-06-10T05:35:29;7.53;;;5.07;;
10144;SDS011;5113;41.822;23.564;2023-06-10T05:38:35;5.43;;;4.87;;
10144;SDS011;5113;41.822;23.564;2023-06-10T05:41:42;5.57;;;5.07;;
10144;SDS011;5113;41.822;23.564;2023-06-10T05:44:48;5.57;;;5.03;;
10144;SDS011;5113;41.822;23.564;2023-06-10T05:47:55;6.47;;;5.10;;
10144;SDS011;5113;41.822;23.564;2023-06-10T05:51:01;6.73;;;6.10;;
10144;SDS011;5113;41.822;23.564;2023-06-10T05:54:07;6.00;;;5.40;;
10144;SDS011;5113;41.822;23.564;2023-06-10T05:57:15;5.23;;;4.73;;
10144;SDS011;5113;41.822;23.564;2023-06-10T06:00:22;8.43;;;5.43;;
10144;SDS011;5113;41.822;23.564;2023-06-10T06:03:28;5.07;;;4.67;;
10144;SDS011;5113;41.822;23.564;2023-06-10T06:06:35;6.60;;;5.50;;
10144;SDS011;5113;41.822;23.564;2023-06-10T06:09:44;5.07;;;4.60;;
10144;SDS011;5113;41.822;23.564;2023-06-10T06:12:52;5.87;;;4.77;;
10144;SDS011;5113;41.822;23.564;2023-06-10T06:15:59;4.20;;;3.90;;
10144;SDS011;5113;41.822;23.564;2023-06-10T06:19:05;4.87;;;3.67;;
10144;SDS011;5113;41.822;23.564;2023-06-10T06:22:12;5.80;;;4.43;;
10144;SDS011;5113;41.822;23.564;2023-06-10T06:25:18;4.40;;;4.00;;
10144;SDS011;5113;41.822;23.564;2023-06-10T06:28:26;4.20;;;3.80;;
10144;SDS011;5113;41.822;23.564;2023-06-10T06:31:33;4.47;;;4.07;;
10144;SDS011;5113;41.822;23.564;2023-06-10T06:34:40;4.20;;;3.90;;
10144;SDS011;5113;41.822;23.564;2023-06-10T06:37:46;4.53;;;3.83;;
10144;SDS011;5113;41.822;23.564;2023-06-10T06:40:53;3.67;;;3.37;;
10144;SDS011;5113;41.822;23.564;2023-06-10T06:44:01;5.07;;;4.03;;
10144;SDS011;5113;41.822;23.564;2023-06-10T06:47:07;4.00;;;3.53;;
10144;SDS011;5113;41.822;23.564;2023-06-10T06:50:14;4.07;;;3.77;;
10144;SDS011;5113;41.822;23.564;2023-06-10T06:53:21;3.93;;;3.63;;
10144;SDS011;5113;41.822;23.564;2023-06-10T06:56:27;4.13;;;3.83;;
10144;SDS011;5113;41.822;23.564;2023-06-10T06:59:35;4.07;;;3.77;;
10144;SDS011;5113;41.822;23.564;2023-06-10T07:02:41;3.70;;;3.40;;
10144;SDS011;5113;41.822;23.564;2023-06-10T07:05:47;3.83;;;3.53;;
10144;SDS011;5113;41.822;23.564;2023-06-10T07:08:53;3.57;;;3.37;;
10144;SDS011;5113;41.822;23.564;2023-06-10T07:11:59;4.10;;;3.80;;
10144;SDS011;5113;41.822;23.564;2023-06-10T07:15:08;4.17;;;3.77;;
10144;SDS011;5113;41.822;23.564;2023-06-10T07:18:15;4.23;;;3.83;;
10144;SDS011;5113;41.822;23.564;2023-06-10T07:21:22;3.60;;;3.30;;
10144;SDS011;5113;41.822;23.564;2023-06-10T07:24:28;4.03;;;3.63;;
10144;SDS011;5113;41.822;23.564;2023-06-10T07:27:34;3.72;;;3.42;;
10144;SDS011;5113;41.822;23.564;2023-06-10T07:30:44;4.80;;;4.27;;
10144;SDS011;5113;41.822;23.564;2023-06-10T07:33:50;4.15;;;3.85;;
10144;SDS011;5113;41.822;23.564;2023-06-10T07:36:56;4.10;;;3.70;;
10144;SDS011;5113;41.822;23.564;2023-06-10T07:40:03;3.80;;;3.50;;
10144;SDS011;5113;41.822;23.564;2023-06-10T07:43:10;4.38;;;4.07;;
10144;SDS011;5113;41.822;23.564;2023-06-10T07:46:19;4.15;;;3.75;;
10144;SDS011;5113;41.822;23.564;2023-06-10T07:49:25;3.58;;;3.28;;
10144;SDS011;5113;41.822;23.564;2023-06-10T07:52:31;4.00;;;3.53;;
10144;SDS011;5113;41.822;23.564;2023-06-10T07:55:38;4.97;;;3.65;;
10144;SDS011;5113;41.822;23.564;2023-06-10T07:58:44;4.07;;;3.67;;
10144;SDS011;5113;41.822;23.564;2023-06-10T08:01:52;4.20;;;3.90;;
10144;SDS011;5113;41.822;23.564;2023-06-10T08:04:59;3.85;;;3.55;;
10144;SDS011;5113;41.822;23.564;2023-06-10T08:08:05;4.85;;;3.88;;
10144;SDS011;5113;41.822;23.564;2023-06-10T08:11:11;3.75;;;3.55;;
10144;SDS011;5113;41.822;23.564;2023-06-10T08:14:18;4.28;;;3.97;;
10144;SDS011;5113;41.822;23.564;2023-06-10T08:17:25;4.07;;;3.78;;
10144;SDS011;5113;41.822;23.564;2023-06-10T08:20:32;4.05;;;3.65;;
10144;SDS011;5113;41.822;23.564;2023-06-10T08:23:38;4.57;;;4.18;;
10144;SDS011;5113;41.822;23.564;2023-06-10T08:26:45;4.78;;;4.35;;
10144;SDS011;5113;41.822;23.564;2023-06-10T08:29:51;4.88;;;4.47;;
10144;SDS011;5113;41.822;23.564;2023-06-10T08:32:59;4.72;;;4.32;;
10144;SDS011;5113;41.822;23.564;2023-06-10T08:36:05;5.10;;;4.60;;
10144;SDS011;5113;41.822;23.564;2023-06-10T08:39:12;5.05;;;4.65;;
10144;SDS011;5113;41.822;23.564;2023-06-10T08:42:20;3.63;;;3.42;;
10144;SDS011;5113;41.822;23.564;2023-06-10T08:45:30;3.72;;;3.53;;
10144;SDS011;5113;41.822;23.564;2023-06-10T08:48:39;3.40;;;3.20;;
10144;SDS011;5113;41.822;23.564;2023-06-10T08:51:50;3.75;;;3.55;;
10144;SDS011;5113;41.822;23.564;2023-06-10T08:54:57;4.07;;;3.78;;
10144;SDS011;5113;41.822;23.564;2023-06-10T08:58:05;3.80;;;3.60;;
10144;SDS011;5113;41.822;23.564;2023-06-10T09:01:12;3.10;;;2.90;;
10144;SDS011;5113;41.822;23.564;2023-06-10T09:04:23;3.72;;;3.35;;
10144;SDS011;5113;41.822;23.564;2023-06-10T09:07:30;3.67;;;3.47;;
10144;SDS011;5113;41.822;23.564;2023-06-10T09:10:39;3.85;;;3.55;;
10144;SDS011;5113;41.822;23.564;2023-06-10T09:13:46;4.07;;;3.72;;
10144;SDS011;5113;41.822;23.564;2023-06-10T09:16:53;4.20;;;3.90;;
10144;SDS011;5113;41.822;23.564;2023-06-10T09:20:03;6.00;;;4.38;;
10144;SDS011;5113;41.822;23.564;2023-06-10T09:23:14;3.90;;;3.60;;
10144;SDS011;5113;41.822;23.564;2023-06-10T09:26:21;6.38;;;5.45;;
10144;SDS011;5113;41.822;23.564;2023-06-10T09:29:44;4.57;;;4.15;;
10144;SDS011;5113;41.822;23.564;2023-06-10T09:32:53;3.38;;;3.15;;
10144;SDS011;5113;41.822;23.564;2023-06-10T09:36:02;3.97;;;3.60;;
10144;SDS011;5113;41.822;23.564;2023-06-10T09:39:13;3.15;;;2.95;;
10144;SDS011;5113;41.822;23.564;2023-06-10T09:42:21;4.20;;;3.80;;
10144;SDS011;5113;41.822;23.564;2023-06-10T09:45:29;3.78;;;3.47;;
10144;SDS011;5113;41.822;23.564;2023-06-10T09:48:38;3.30;;;3.10;;
10144;SDS011;5113;41.822;23.564;2023-06-10T09:51:53;4.15;;;3.75;;
10144;SDS011;5113;41.822;23.564;2023-06-10T09:55:01;3.85;;;3.50;;
10144;SDS011;5113;41.822;23.564;2023-06-10T09:58:08;2.88;;;2.67;;
10144;SDS011;5113;41.822;23.564;2023-06-10T10:01:14;3.42;;;3.22;;
10144;SDS011;5113;41.822;23.564;2023-06-10T10:04:23;3.10;;;2.90;;
10144;SDS011;5113;41.822;23.564;2023-06-10T10:07:32;3.75;;;3.45;;
10144;SDS011;5113;41.822;23.564;2023-06-10T10:10:38;3.30;;;3.10;;
10144;SDS011;5113;41.822;23.564;2023-06-10T10:13:45;3.63;;;3.42;;
10144;SDS011;5113;41.822;23.564;2023-06-10T10:16:54;5.20;;;3.50;;
10144;SDS011;5113;41.822;23.564;2023-06-10T10:20:04;3.70;;;3.30;;
10144;SDS011;5113;41.822;23.564;2023-06-10T10:23:14;4.07;;;3.67;;
10144;SDS011;5113;41.822;23.564;2023-06-10T10:26:27;3.58;;;3.30;;
10144;SDS011;5113;41.822;23.564;2023-06-10T10:29:37;3.75;;;3.45;;
10144;SDS011;5113;41.822;23.564;2023-06-10T10:32:46;3.58;;;3.25;;
10144;SDS011;5113;41.822;23.564;2023-06-10T10:36:02;3.03;;;2.83;;
10144;SDS011;5113;41.822;23.564;2023-06-10T10:39:10;3.38;;;3.08;;
10144;SDS011;5113;41.822;23.564;2023-06-10T10:42:17;3.65;;;3.42;;
10144;SDS011;5113;41.822;23.564;2023-06-10T10:45:24;3.55;;;3.33;;
10144;SDS011;5113;41.822;23.564;2023-06-10T10:48:33;3.42;;;3.20;;
10144;SDS011;5113;41.822;23.564;2023-06-10T10:51:55;4.03;;;3.63;;
10144;SDS011;5113;41.822;23.564;2023-06-10T10:55:04;4.03;;;3.75;;
10144;SDS011;5113;41.822;23.564;2023-06-10T10:58:23;3.28;;;3.00;;
10144;SDS011;5113;41.822;23.564;2023-06-10T11:01:39;3.50;;;3.30;;
10144;SDS011;5113;41.822;23.564;2023-06-10T11:04:46;3.70;;;3.40;;
10144;SDS011;5113;41.822;23.564;2023-06-10T11:07:54;3.33;;;3.13;;
10144;SDS011;5113;41.822;23.564;2023-06-10T11:11:02;3.00;;;2.80;;
10144;SDS011;5113;41.822;23.564;2023-06-10T11:14:28;3.42;;;3.13;;
10144;SDS011;5113;41.822;23.564;2023-06-10T11:17:35;3.72;;;3.42;;
10144;SDS011;5113;41.822;23.564;2023-06-10T11:20:41;4.60;;;3.63;;
10144;SDS011;5113;41.822;23.564;2023-06-10T11:23:58;3.83;;;3.53;;
10144;SDS011;5113;41.822;23.564;2023-06-10T11:27:16;5.93;;;3.55;;
10144;SDS011;5113;41.822;23.564;2023-06-10T11:30:25;3.35;;;3.15;;
10144;SDS011;5113;41.822;23.564;2023-06-10T11:33:31;3.65;;;3.35;;
10144;SDS011;5113;41.822;23.564;2023-06-10T11:36:38;3.58;;;3.28;;
10144;SDS011;5113;41.822;23.564;2023-06-10T11:39:47;3.20;;;3.00;;
10144;SDS011;5113;41.822;23.564;2023-06-10T11:42:55;3.38;;;3.15;;
10144;SDS011;5113;41.822;23.564;2023-06-10T11:46:01;3.22;;;2.97;;
10144;SDS011;5113;41.822;23.564;2023-06-10T11:49:07;3.30;;;3.08;;
10144;SDS011;5113;41.822;23.564;2023-06-10T11:52:14;3.45;;;3.20;;
10144;SDS011;5113;41.822;23.564;2023-06-10T11:55:20;3.70;;;3.40;;
10144;SDS011;5113;41.822;23.564;2023-06-10T11:58:28;3.73;;;3.17;;
10144;SDS011;5113;41.822;23.564;2023-06-10T12:01:35;2.78;;;2.58;;
10144;SDS011;5113;41.822;23.564;2023-06-10T12:04:46;2.90;;;2.70;;
10144;SDS011;5113;41.822;23.564;2023-06-10T12:08:07;2.60;;;2.40;;
10144;SDS011;5113;41.822;23.564;2023-06-10T12:11:14;3.17;;;2.97;;
10144;SDS011;5113;41.822;23.564;2023-06-10T12:18:01;2.50;;;2.40;;
10144;SDS011;5113;41.822;23.564;2023-06-10T12:21:15;2.83;;;2.63;;
10144;SDS011;5113;41.822;23.564;2023-06-10T12:24:22;3.33;;;3.13;;
10144;SDS011;5113;41.822;23.564;2023-06-10T12:27:29;2.97;;;2.80;;
10144;SDS011;5113;41.822;23.564;2023-06-10T12:30:38;3.17;;;2.97;;
10144;SDS011;5113;41.822;23.564;2023-06-10T12:33:44;3.30;;;2.90;;
10144;SDS011;5113;41.822;23.564;2023-06-10T12:36:54;3.67;;;3.37;;
10144;SDS011;5113;41.822;23.564;2023-06-10T12:40:01;3.47;;;3.13;;
10144;SDS011;5113;41.822;23.564;2023-06-10T12:43:08;5.90;;;3.30;;
10144;SDS011;5113;41.822;23.564;2023-06-10T12:46:17;3.70;;;3.40;;
10144;SDS011;5113;41.822;23.564;2023-06-10T12:49:23;3.23;;;2.90;;
10144;SDS011;5113;41.822;23.564;2023-06-10T12:52:31;3.30;;;2.97;;
10144;SDS011;5113;41.822;23.564;2023-06-10T12:55:38;3.60;;;3.30;;
10144;SDS011;5113;41.822;23.564;2023-06-10T12:58:45;3.17;;;2.97;;
10144;SDS011;5113;41.822;23.564;2023-06-10T13:01:52;3.30;;;3.10;;
10144;SDS011;5113;41.822;23.564;2023-06-10T13:05:00;3.30;;;3.00;;
10144;SDS011;5113;41.822;23.564;2023-06-10T13:08:07;5.00;;;4.50;;
10144;SDS011;5113;41.822;23.564;2023-06-10T13:11:14;4.37;;;4.07;;
10144;SDS011;5113;41.822;23.564;2023-06-10T13:14:21;5.33;;;3.07;;
10144;SDS011;5113;41.822;23.564;2023-06-10T13:17:28;4.30;;;3.90;;
10144;SDS011;5113;41.822;23.564;2023-06-10T13:20:35;3.37;;;3.17;;
10144;SDS011;5113;41.822;23.564;2023-06-10T13:23:43;3.30;;;3.10;;
10144;SDS011;5113;41.822;23.564;2023-06-10T13:26:50;4.13;;;3.40;;
10144;SDS011;5113;41.822;23.564;2023-06-10T13:29:56;3.87;;;3.57;;
10144;SDS011;5113;41.822;23.564;2023-06-10T13:33:04;3.10;;;2.90;;
10144;SDS011;5113;41.822;23.564;2023-06-10T13:36:10;4.00;;;3.57;;
10144;SDS011;5113;41.822;23.564;2023-06-10T13:39:17;4.23;;;3.93;;
10144;SDS011;5113;41.822;23.564;2023-06-10T13:42:23;3.93;;;3.23;;
10144;SDS011;5113;41.822;23.564;2023-06-10T13:45:31;3.67;;;3.37;;
10144;SDS011;5113;41.822;23.564;2023-06-10T13:48:38;3.47;;;3.17;;
10144;SDS011;5113;41.822;23.564;2023-06-10T13:51:44;3.87;;;3.57;;
10144;SDS011;5113;41.822;23.564;2023-06-10T13:54:51;3.60;;;3.27;;
10144;SDS011;5113;41.822;23.564;2023-06-10T13:57:57;3.63;;;3.33;;
10144;SDS011;5113;41.822;23.564;2023-06-10T14:01:04;3.50;;;3.20;;
10144;SDS011;5113;41.822;23.564;2023-06-10T14:04:12;3.80;;;3.03;;
10144;SDS011;5113;41.822;23.564;2023-06-10T14:07:18;3.33;;;3.13;;
10144;SDS011;5113;41.822;23.564;2023-06-10T14:10:25;3.10;;;2.90;;
10144;SDS011;5113;41.822;23.564;2023-06-10T14:13:31;3.20;;;3.00;;
10144;SDS011;5113;41.822;23.564;2023-06-10T14:16:38;3.07;;;2.77;;
10144;SDS011;5113;41.822;23.564;2023-06-10T14:19:48;2.73;;;2.53;;
10144;SDS011;5113;41.822;23.564;2023-06-10T14:22:55;3.30;;;3.10;;
10144;SDS011;5113;41.822;23.564;2023-06-10T14:26:01;3.57;;;3.13;;
10144;SDS011;5113;41.822;23.564;2023-06-10T14:29:10;3.23;;;3.00;;
10144;SDS011;5113;41.822;23.564;2023-06-10T14:32:19;3.07;;;2.87;;
10144;SDS011;5113;41.822;23.564;2023-06-10T14:35:27;2.70;;;2.60;;
10144;SDS011;5113;41.822;23.564;2023-06-10T14:38:33;2.83;;;2.63;;
10144;SDS011;5113;41.822;23.564;2023-06-10T14:41:40;4.43;;;3.10;;
10144;SDS011;5113;41.822;23.564;2023-06-10T14:44:46;3.50;;;3.30;;
10144;SDS011;5113;41.822;23.564;2023-06-10T14:47:54;3.10;;;2.80;;
10144;SDS011;5113;41.822;23.564;2023-06-10T14:51:01;3.27;;;2.97;;
10144;SDS011;5113;41.822;23.564;2023-06-10T14:54:08;5.67;;;3.80;;
10144;SDS011;5113;41.822;23.564;2023-06-10T14:57:14;4.73;;;3.60;;
10144;SDS011;5113;41.822;23.564;2023-06-10T15:00:21;3.93;;;3.47;;
10144;SDS011;5113;41.822;23.564;2023-06-10T15:03:28;6.03;;;4.47;;
10144;SDS011;5113;41.822;23.564;2023-06-10T15:06:36;6.97;;;4.20;;
10144;SDS011;5113;41.822;23.564;2023-06-10T15:09:43;3.30;;;3.00;;
10144;SDS011;5113;41.822;23.564;2023-06-10T15:12:49;4.63;;;3.73;;
10144;SDS011;5113;41.822;23.564;2023-06-10T15:16:00;5.43;;;3.73;;
10144;SDS011;5113;41.822;23.564;2023-06-10T15:19:07;3.07;;;2.87;;
10144;SDS011;5113;41.822;23.564;2023-06-10T15:22:15;8.73;;;6.30;;
10144;SDS011;5113;41.822;23.564;2023-06-10T15:25:22;15.97;;;9.93;;
10144;SDS011;5113;41.822;23.564;2023-06-10T15:28:35;7.33;;;5.60;;
10144;SDS011;5113;41.822;23.564;2023-06-10T15:31:42;5.50;;;4.53;;
10144;SDS011;5113;41.822;23.564;2023-06-10T15:34:48;6.23;;;5.40;;
10144;SDS011;5113;41.822;23.564;2023-06-10T15:37:58;7.07;;;5.43;;
10144;SDS011;5113;41.822;23.564;2023-06-10T15:41:05;10.93;;;6.97;;
10144;SDS011;5113;41.822;23.564;2023-06-10T15:44:11;5.90;;;4.73;;
10144;SDS011;5113;41.822;23.564;2023-06-10T15:47:18;3.30;;;3.10;;
10144;SDS011;5113;41.822;23.564;2023-06-10T15:50:25;3.10;;;2.90;;
10144;SDS011;5113;41.822;23.564;2023-06-10T15:53:33;3.17;;;2.97;;
10144;SDS011;5113;41.822;23.564;2023-06-10T15:56:40;3.03;;;2.83;;
10144;SDS011;5113;41.822;23.564;2023-06-10T15:59:47;2.87;;;2.67;;
10144;SDS011;5113;41.822;23.564;2023-06-10T16:02:53;4.50;;;4.13;;
10144;SDS011;5113;41.822;23.564;2023-06-10T16:05:59;5.27;;;4.87;;
10144;SDS011;5113;41.822;23.564;2023-06-10T16:09:07;3.93;;;3.63;;
10144;SDS011;5113;41.822;23.564;2023-06-10T16:12:14;3.50;;;3.20;;
10144;SDS011;5113;41.822;23.564;2023-06-10T16:15:20;3.43;;;3.13;;
10144;SDS011;5113;41.822;23.564;2023-06-10T16:18:26;4.80;;;4.07;;
10144;SDS011;5113;41.822;23.564;2023-06-10T16:21:33;3.40;;;3.10;;
10144;SDS011;5113;41.822;23.564;2023-06-10T16:24:43;3.90;;;3.60;;
10144;SDS011;5113;41.822;23.564;2023-06-10T16:27:50;4.30;;;3.90;;
10144;SDS011;5113;41.822;23.564;2023-06-10T16:30:56;5.00;;;4.50;;
10144;SDS011;5113;41.822;23.564;2023-06-10T16:34:02;6.03;;;5.43;;
10144;SDS011;5113;41.822;23.564;2023-06-10T16:37:08;11.60;;;7.83;;
10144;SDS011;5113;41.822;23.564;2023-06-10T16:40:16;13.27;;;7.80;;
10144;SDS011;5113;41.822;23.564;2023-06-10T16:43:22;6.53;;;5.03;;
10144;SDS011;5113;41.822;23.564;2023-06-10T16:46:31;7.27;;;6.03;;
10144;SDS011;5113;41.822;23.564;2023-06-10T16:49:37;8.23;;;6.57;;
10144;SDS011;5113;41.822;23.564;2023-06-10T16:52:43;13.27;;;9.23;;
10144;SDS011;5113;41.822;23.564;2023-06-10T16:55:51;16.50;;;9.00;;
10144;SDS011;5113;41.822;23.564;2023-06-10T16:58:57;8.30;;;6.60;;
10144;SDS011;5113;41.822;23.564;2023-06-10T17:02:04;7.60;;;5.17;;
10144;SDS011;5113;41.822;23.564;2023-06-10T17:05:11;4.00;;;3.67;;
10144;SDS011;5113;41.822;23.564;2023-06-10T17:08:18;3.57;;;3.27;;
10144;SDS011;5113;41.822;23.564;2023-06-10T17:11:26;3.30;;;3.10;;
10144;SDS011;5113;41.822;23.564;2023-06-10T17:14:33;4.17;;;3.77;;
10144;SDS011;5113;41.822;23.564;2023-06-10T17:17:39;3.13;;;2.93;;
10144;SDS011;5113;41.822;23.564;2023-06-10T17:20:45;3.47;;;3.20;;
10144;SDS011;5113;41.822;23.564;2023-06-10T17:23:52;5.27;;;3.97;;
10144;SDS011;5113;41.822;23.564;2023-06-10T17:27:00;4.30;;;3.80;;
10144;SDS011;5113;41.822;23.564;2023-06-10T17:30:08;4.63;;;4.13;;
10144;SDS011;5113;41.822;23.564;2023-06-10T17:33:14;4.80;;;4.27;;
10144;SDS011;5113;41.822;23.564;2023-06-10T17:36:21;5.23;;;4.37;;
10144;SDS011;5113;41.822;23.564;2023-06-10T17:39:27;4.07;;;3.60;;
10144;SDS011;5113;41.822;23.564;2023-06-10T17:42:35;8.23;;;6.50;;
10144;SDS011;5113;41.822;23.564;2023-06-10T17:45:41;6.20;;;4.97;;
10144;SDS011;5113;41.822;23.564;2023-06-10T17:48:48;8.47;;;6.20;;
10144;SDS011;5113;41.822;23.564;2023-06-10T17:51:54;5.67;;;4.70;;
10144;SDS011;5113;41.822;23.564;2023-06-10T17:55:19;5.80;;;4.50;;
10144;SDS011;5113;41.822;23.564;2023-06-10T17:58:26;7.23;;;5.80;;
10144;SDS011;5113;41.822;23.564;2023-06-10T18:01:33;4.77;;;4.37;;
10144;SDS011;5113;41.822;23.564;2023-06-10T18:04:39;3.87;;;3.57;;
10144;SDS011;5113;41.822;23.564;2023-06-10T18:07:45;4.50;;;4.10;;
10144;SDS011;5113;41.822;23.564;2023-06-10T18:10:51;4.37;;;3.97;;
10144;SDS011;5113;41.822;23.564;2023-06-10T18:13:59;3.27;;;2.90;;
10144;SDS011;5113;41.822;23.564;2023-06-10T18:17:05;4.70;;;4.20;;
10144;SDS011;5113;41.822;23.564;2023-06-10T18:20:12;9.17;;;6.90;;
10144;SDS011;5113;41.822;23.564;2023-06-10T18:23:18;9.50;;;6.43;;
10144;SDS011;5113;41.822;23.564;2023-06-10T18:26:24;9.23;;;6.67;;
10144;SDS011;5113;41.822;23.564;2023-06-10T18:29:33;10.70;;;6.70;;
10144;SDS011;5113;41.822;23.564;2023-06-10T18:32:39;4.70;;;4.30;;
10144;SDS011;5113;41.822;23.564;2023-06-10T18:35:46;4.27;;;3.93;;
10144;SDS011;5113;41.822;23.564;2023-06-10T18:38:53;4.17;;;3.87;;
10144;SDS011;5113;41.822;23.564;2023-06-10T18:42:00;4.50;;;4.10;;
10144;SDS011;5113;41.822;23.564;2023-06-10T18:45:09;4.83;;;4.00;;
10144;SDS011;5113;41.822;23.564;2023-06-10T18:48:17;7.23;;;6.00;;
10144;SDS011;5113;41.822;23.564;2023-06-10T18:51:24;16.07;;;9.97;;
10144;SDS011;5113;41.822;23.564;2023-06-10T18:54:30;4.77;;;4.37;;
10144;SDS011;5113;41.822;23.564;2023-06-10T18:57:37;4.53;;;4.13;;
10144;SDS011;5113;41.822;23.564;2023-06-10T19:00:44;4.03;;;3.40;;
10144;SDS011;5113;41.822;23.564;2023-06-10T19:03:51;6.00;;;4.67;;
10144;SDS011;5113;41.822;23.564;2023-06-10T19:06:58;5.43;;;4.17;;
10144;SDS011;5113;41.822;23.564;2023-06-10T19:10:05;3.80;;;3.50;;